Gaborone, Botswana

9:48 PM CAT on December 04, 2016 (GMT +0200)
Sir Seretse Khama International | | Change Station

Elev 3297 ft 24.56 °S, 25.92 °E | Updated 48 minutes ago

Partly Cloudy
Partly Cloudy
82 °F
Feels Like 82 °F
N
18
Wind Variable Wind from ESE

Today
High -- | Low -- °F
--% Chance of Precip.
Yesterday
High -- | Low -- °F
Precip. -- in
Pressure 30.01 in
Visibility 6.2 miles
Clouds Mostly Cloudy 3000 ft
Few 3500 ft
Dew Point 46 °F
Humidity 28%
Rainfall 0.00 in
Snow Depth Not available.
5:19 AM 6:54 PM
Waxing Crescent, 25% visible
METAR FBSK 041900Z 12016KT 9999 BKN030 FEW035CB 28/08 Q1016 NOSIG
Pressure 30.01 in
Visibility 6.2 miles
Clouds Mostly Cloudy 3000 ft
Few 3500 ft
Dew Point 46 °F
Humidity 28%
Rainfall 0.00 in
Snow Depth Not available.
5:19 AM 6:54 PM
Waxing Crescent, 25% visible
METAR FBSK 041900Z 12016KT 9999 BKN030 FEW035CB 28/08 Q1016 NOSIG

10-Day Weather Forecast

No radar image for this location.
×

Almanac

Astronomy

Dec. 04, 2016 Rise Set
Actual Time
Civil Twilight
Nautical Twilight
Astronomical Twilight
Moon
Length of Visible Light
Length of Day
Tomorrow will be .
, % of the Moon is Illuminated

Today's Extremes

Country Highs Country Lows

Community

WunderPhotos

Upload Photos

1,955,652 photos uploaded!

WunderBlog® & News

Nearby

Air Quality

  Air Quality AQ Index Pollutant
Not available.

Snow Depth

Station Depth Elevation

Earthquake Activity

City Distance Mag. Time & Date
Minimum magnitude displayed is 2.5.

Coastal Water Temperatures

Place Temperature

Stations

Nearby Weather Stations

Station Location Temp. Windchill Dew Point Humidity Wind Precip. Elev Updated Type